createdAt,value
2018-08-19T00:01:35.083Z,17.30
2018-08-19T00:03:38.840Z,17.30
2018-08-19T00:05:43.502Z,17.30
2018-08-19T00:07:48.264Z,17.20
2018-08-19T00:09:51.870Z,17.20
2018-08-19T00:11:55.651Z,17.20
2018-08-19T00:13:59.434Z,17.20
2018-08-19T00:16:03.169Z,17.10
2018-08-19T00:18:08.097Z,17.10
2018-08-19T00:20:14.180Z,17.00
2018-08-19T00:22:17.808Z,16.90
2018-08-19T00:24:21.547Z,16.90
2018-08-19T00:26:25.188Z,16.90
2018-08-19T00:28:28.843Z,16.80
2018-08-19T00:30:32.855Z,16.80
2018-08-19T00:32:36.523Z,16.80
2018-08-19T00:34:40.138Z,16.80
2018-08-19T00:36:43.758Z,16.70
2018-08-19T00:38:47.509Z,16.70
2018-08-19T00:40:51.139Z,16.70
2018-08-19T00:42:54.818Z,16.70
2018-08-19T00:44:58.527Z,16.70
2018-08-19T00:47:02.316Z,16.70
2018-08-19T00:49:06.082Z,16.70
2018-08-19T00:51:09.705Z,16.70
2018-08-19T00:53:13.410Z,16.70
2018-08-19T00:55:17.210Z,16.70
2018-08-19T00:57:20.950Z,16.70
2018-08-19T00:59:25.464Z,16.60
2018-08-19T01:01:34.432Z,16.60
2018-08-19T01:03:51.249Z,16.60
2018-08-19T01:05:54.839Z,16.60
2018-08-19T01:07:58.470Z,16.50
2018-08-19T01:10:02.386Z,16.40
2018-08-19T01:12:06.010Z,16.40
2018-08-19T01:14:11.216Z,16.30
2018-08-19T01:16:14.714Z,16.30
2018-08-19T01:18:18.282Z,16.30
2018-08-19T01:20:22.928Z,16.20
2018-08-19T01:22:26.743Z,16.20
2018-08-19T01:24:30.848Z,16.20
2018-08-19T01:26:36.489Z,16.20
2018-08-19T01:28:43.664Z,16.20
2018-08-19T01:30:47.298Z,16.10
2018-08-19T01:32:51.017Z,16.10
2018-08-19T01:34:54.651Z,16.10
2018-08-19T01:36:58.339Z,16.00
2018-08-19T01:39:01.955Z,16.00
2018-08-19T01:41:05.602Z,16.00
2018-08-19T01:43:09.144Z,16.00
2018-08-19T01:45:12.806Z,15.90
2018-08-19T01:47:17.409Z,15.90
2018-08-19T01:49:21.085Z,15.90
2018-08-19T01:51:24.717Z,15.90
2018-08-19T01:53:28.232Z,15.80
2018-08-19T01:55:31.898Z,15.70
2018-08-19T01:57:41.018Z,15.70
2018-08-19T01:59:44.737Z,15.60
2018-08-19T02:01:50.565Z,15.60
2018-08-19T02:03:54.213Z,15.50
2018-08-19T02:05:57.884Z,15.50
2018-08-19T02:08:02.864Z,15.60
2018-08-19T02:10:08.681Z,15.50
2018-08-19T02:12:12.279Z,15.50
2018-08-19T02:14:16.891Z,15.50
2018-08-19T02:16:20.574Z,15.60
2018-08-19T02:18:24.298Z,15.60
2018-08-19T02:20:31.776Z,15.60
2018-08-19T02:22:35.307Z,15.60
2018-08-19T02:24:40.484Z,15.60
2018-08-19T02:26:44.156Z,15.50
2018-08-19T02:28:49.103Z,15.50
2018-08-19T02:30:58.043Z,15.50
2018-08-19T02:33:01.861Z,15.50
2018-08-19T02:35:05.555Z,15.40
2018-08-19T02:37:12.188Z,15.40
2018-08-19T02:39:15.852Z,15.30
2018-08-19T02:41:19.459Z,15.30
2018-08-19T02:43:23.527Z,15.30
2018-08-19T02:45:27.137Z,15.20
2018-08-19T02:47:31.376Z,15.30
2018-08-19T02:49:34.999Z,15.30
2018-08-19T02:51:38.734Z,15.30
2018-08-19T02:53:43.751Z,15.20
2018-08-19T02:55:47.456Z,15.20
2018-08-19T02:57:53.292Z,15.20
2018-08-19T02:59:57.550Z,15.10
2018-08-19T03:02:02.448Z,15.10
2018-08-19T03:04:06.128Z,15.10
2018-08-19T03:06:10.007Z,15.10
2018-08-19T03:08:13.656Z,15.00
2018-08-19T03:10:17.914Z,15.00
2018-08-19T03:12:21.581Z,15.00
2018-08-19T03:14:25.134Z,14.90
2018-08-19T03:16:28.797Z,14.90
2018-08-19T03:18:32.371Z,14.80
2018-08-19T03:20:36.060Z,14.80
2018-08-19T03:22:39.790Z,14.70
2018-08-19T03:24:43.436Z,14.70
2018-08-19T03:26:47.057Z,14.70
2018-08-19T03:28:50.664Z,14.60
2018-08-19T03:31:03.888Z,14.60
2018-08-19T03:33:08.216Z,14.60
2018-08-19T03:35:16.476Z,14.60
2018-08-19T03:37:20.088Z,14.50
2018-08-19T03:39:24.474Z,14.50
2018-08-19T03:41:28.176Z,14.50
2018-08-19T03:43:31.713Z,14.40
2018-08-19T03:45:36.627Z,14.30
2018-08-19T03:47:40.206Z,14.40
2018-08-19T03:49:43.900Z,14.30
2018-08-19T03:51:47.627Z,14.30
2018-08-19T03:53:51.317Z,14.30
2018-08-19T03:55:54.951Z,14.30
2018-08-19T03:58:01.245Z,14.30
2018-08-19T04:00:05.868Z,14.30
2018-08-19T04:02:09.543Z,14.30
2018-08-19T04:04:15.422Z,14.30
2018-08-19T04:06:19.184Z,14.30
2018-08-19T04:08:26.471Z,14.30
2018-08-19T04:10:30.071Z,14.30
2018-08-19T04:12:33.659Z,14.30
2018-08-19T04:14:37.508Z,14.30
2018-08-19T04:16:41.268Z,14.30
2018-08-19T04:18:46.117Z,14.20
2018-08-19T04:20:49.697Z,14.20
2018-08-19T04:22:53.369Z,14.20
2018-08-19T04:24:56.973Z,14.20
2018-08-19T04:27:12.311Z,14.20
2018-08-19T04:29:21.286Z,14.20
2018-08-19T04:31:25.044Z,14.20
2018-08-19T04:33:32.698Z,14.20
2018-08-19T04:35:36.333Z,14.20
2018-08-19T04:37:39.932Z,14.20
2018-08-19T04:39:43.532Z,14.20
2018-08-19T04:41:47.180Z,14.20
2018-08-19T04:43:50.990Z,14.10
2018-08-19T04:45:56.219Z,14.10
2018-08-19T04:47:59.867Z,14.10
2018-08-19T04:50:03.612Z,14.00
2018-08-19T04:52:08.692Z,14.00
2018-08-19T04:54:12.215Z,14.00
2018-08-19T04:56:15.933Z,14.00
2018-08-19T04:58:19.533Z,14.00
2018-08-19T05:00:23.166Z,14.00
2018-08-19T05:02:26.850Z,14.00
2018-08-19T05:04:30.479Z,14.00
2018-08-19T05:06:34.138Z,13.90
2018-08-19T05:08:37.790Z,13.90
2018-08-19T05:10:42.162Z,13.90
2018-08-19T05:12:45.755Z,13.90
2018-08-19T05:14:49.375Z,13.90
2018-08-19T05:16:52.994Z,13.90
2018-08-19T05:19:06.114Z,13.90
2018-08-19T05:21:14.653Z,14.00
2018-08-19T05:23:18.304Z,14.00
2018-08-19T05:25:21.843Z,14.10
2018-08-19T05:27:25.463Z,14.10
2018-08-19T05:29:29.098Z,14.20
2018-08-19T05:31:33.061Z,14.20
2018-08-19T05:33:36.688Z,14.30
2018-08-19T05:35:40.287Z,14.30
2018-08-19T05:37:43.897Z,14.40
2018-08-19T05:39:58.292Z,14.40
2018-08-19T05:42:09.331Z,14.50
2018-08-19T05:44:13.011Z,14.60
2018-08-19T05:46:16.656Z,14.70
2018-08-19T05:48:20.315Z,14.80
2018-08-19T05:50:23.913Z,15.00
2018-08-19T05:52:27.772Z,15.10
2018-08-19T05:54:31.832Z,15.20
2018-08-19T05:56:35.510Z,15.30
2018-08-19T05:58:39.176Z,15.40
2018-08-19T06:00:45.042Z,15.50
2018-08-19T06:02:48.791Z,15.60
2018-08-19T06:04:52.377Z,15.70
2018-08-19T06:07:00.314Z,15.70
2018-08-19T06:09:04.357Z,15.80
2018-08-19T06:11:07.945Z,15.90
2018-08-19T06:13:12.372Z,15.80
2018-08-19T06:15:17.184Z,15.90
2018-08-19T06:17:20.791Z,16.00
2018-08-19T06:19:24.474Z,16.10
2018-08-19T06:21:28.109Z,16.30
2018-08-19T06:23:31.792Z,16.40
2018-08-19T06:25:35.561Z,16.60
2018-08-19T06:27:50.139Z,16.60
2018-08-19T06:29:54.239Z,16.70
2018-08-19T06:31:57.903Z,16.70
2018-08-19T06:34:01.515Z,16.80
2018-08-19T06:36:05.179Z,16.90
2018-08-19T06:38:10.094Z,17.00
2018-08-19T06:40:16.699Z,17.20
2018-08-19T06:42:22.935Z,17.40
2018-08-19T06:44:26.523Z,17.50
2018-08-19T06:46:30.132Z,17.60
2018-08-19T06:48:33.809Z,17.70
2018-08-19T06:50:37.483Z,17.80
2018-08-19T06:52:41.191Z,17.90
2018-08-19T06:54:45.021Z,18.10
2018-08-19T06:56:48.686Z,18.30
2018-08-19T06:58:52.388Z,18.40
2018-08-19T07:00:56.167Z,18.60
2018-08-19T07:03:05.107Z,18.70
2018-08-19T07:05:08.788Z,18.90
2018-08-19T07:07:13.515Z,19.10
2018-08-19T07:09:17.176Z,19.30
2018-08-19T07:11:20.793Z,19.50
2018-08-19T07:13:24.493Z,19.60
2018-08-19T07:15:28.243Z,19.80
2018-08-19T07:17:31.901Z,20.00
2018-08-19T07:19:39.487Z,20.20
2018-08-19T07:21:43.239Z,20.50
2018-08-19T07:23:46.881Z,20.70
2018-08-19T07:25:50.630Z,20.90
2018-08-19T07:27:54.397Z,21.00
2018-08-19T07:29:58.120Z,21.00
2018-08-19T07:32:01.787Z,21.00
2018-08-19T07:34:05.603Z,20.90
2018-08-19T07:36:09.283Z,21.00
2018-08-19T07:38:13.195Z,21.10
2018-08-19T07:40:16.924Z,21.30
2018-08-19T07:42:20.680Z,21.40
2018-08-19T07:44:24.515Z,21.60
2018-08-19T07:46:28.147Z,21.70
2018-08-19T07:48:32.014Z,21.90
2018-08-19T07:50:36.606Z,22.10
2018-08-19T07:52:40.422Z,22.20
2018-08-19T07:54:44.105Z,22.40
2018-08-19T07:56:47.724Z,22.50
2018-08-19T07:58:57.296Z,22.70
2018-08-19T08:01:01.070Z,22.90
2018-08-19T08:03:04.767Z,23.00
2018-08-19T08:05:09.946Z,23.20
2018-08-19T08:07:14.559Z,23.50
2018-08-19T08:09:18.281Z,23.70
2018-08-19T08:11:21.924Z,23.90
2018-08-19T08:13:25.646Z,24.00
2018-08-19T08:15:29.517Z,24.20
2018-08-19T08:17:33.470Z,24.20
2018-08-19T08:19:39.643Z,24.10
2018-08-19T08:21:43.599Z,24.00
2018-08-19T08:23:47.363Z,24.00
2018-08-19T08:25:51.089Z,24.00
2018-08-19T08:27:56.074Z,24.00
2018-08-19T08:30:02.387Z,24.20
2018-08-19T08:32:06.051Z,24.40
2018-08-19T08:34:09.922Z,24.70
2018-08-19T08:36:13.804Z,24.80
2018-08-19T08:38:17.596Z,25.00
2018-08-19T08:40:21.415Z,25.00
2018-08-19T08:42:29.260Z,25.20
2018-08-19T08:44:32.965Z,25.30
2018-08-19T08:46:36.623Z,25.50
2018-08-19T08:48:40.470Z,25.60
2018-08-19T08:50:44.286Z,25.40
2018-08-19T08:52:47.878Z,25.30
2018-08-19T08:54:53.309Z,25.40
2018-08-19T08:56:57.937Z,25.40
2018-08-19T08:59:01.606Z,25.50
2018-08-19T09:01:05.363Z,25.70
2018-08-19T09:03:09.024Z,25.60
2018-08-19T09:05:12.965Z,25.50
2018-08-19T09:07:16.904Z,25.50
2018-08-19T09:09:20.566Z,25.60
2018-08-19T09:11:24.268Z,25.90
2018-08-19T09:13:28.031Z,26.10
2018-08-19T09:15:31.729Z,26.20
2018-08-19T09:17:35.580Z,26.40
2018-08-19T09:19:40.157Z,26.50
2018-08-19T09:21:43.755Z,26.50
2018-08-19T09:23:47.562Z,26.60
2018-08-19T09:25:52.385Z,26.50
2018-08-19T09:27:56.102Z,26.40
2018-08-19T09:30:00.147Z,26.40
2018-08-19T09:32:04.233Z,26.60
2018-08-19T09:34:08.907Z,26.80
2018-08-19T09:36:12.898Z,27.10
2018-08-19T09:38:21.807Z,27.30
2018-08-19T09:40:29.743Z,27.30
2018-08-19T09:42:34.408Z,27.30
2018-08-19T09:44:39.568Z,27.50
2018-08-19T09:46:43.307Z,27.60
2018-08-19T09:48:46.893Z,27.80
2018-08-19T09:50:50.535Z,27.90
2018-08-19T09:52:54.080Z,28.00
2018-08-19T09:55:01.884Z,28.00
2018-08-19T09:57:06.734Z,27.90
2018-08-19T09:59:10.350Z,28.00
2018-08-19T10:01:19.173Z,28.10
2018-08-19T10:03:23.140Z,27.90
2018-08-19T10:05:28.555Z,27.90
2018-08-19T10:07:32.268Z,28.10
2018-08-19T10:09:36.129Z,28.10
2018-08-19T10:11:41.503Z,28.30
2018-08-19T10:13:49.997Z,28.40
2018-08-19T10:15:54.660Z,28.40
2018-08-19T10:17:59.863Z,28.30
2018-08-19T10:20:03.666Z,28.40
2018-08-19T10:22:07.432Z,28.60
2018-08-19T10:24:30.319Z,28.80
2018-08-19T10:26:34.106Z,29.10
2018-08-19T10:28:37.696Z,29.30
2018-08-19T10:30:46.984Z,29.50
2018-08-19T10:33:01.358Z,29.50
2018-08-19T10:35:10.377Z,29.60
2018-08-19T10:37:13.997Z,29.50
2018-08-19T10:39:17.751Z,29.20
2018-08-19T10:41:22.887Z,29.00
2018-08-19T10:43:28.785Z,28.80
2018-08-19T10:45:35.963Z,28.90
2018-08-19T10:47:39.895Z,29.10
2018-08-19T10:49:48.165Z,29.00
2018-08-19T10:51:52.174Z,29.00
2018-08-19T10:53:55.865Z,28.80
2018-08-19T10:56:01.255Z,28.80
2018-08-19T10:58:08.207Z,28.90
2018-08-19T11:00:15.419Z,28.90
2018-08-19T11:02:19.335Z,29.10
2018-08-19T11:04:22.995Z,29.20
2018-08-19T11:06:26.708Z,29.30
2018-08-19T11:08:30.568Z,29.40
2018-08-19T11:10:34.225Z,29.60
2018-08-19T11:12:37.876Z,29.60
2018-08-19T11:14:41.523Z,29.60
2018-08-19T11:16:45.185Z,29.70
2018-08-19T11:18:54.391Z,29.50
2018-08-19T11:21:01.270Z,29.50
2018-08-19T11:23:10.071Z,29.60
2018-08-19T11:25:16.417Z,29.40
2018-08-19T11:27:23.343Z,29.20
2018-08-19T11:29:27.621Z,29.20
2018-08-19T11:31:35.087Z,29.30
2018-08-19T11:33:41.809Z,29.40
2018-08-19T11:35:46.738Z,29.60
2018-08-19T11:37:50.809Z,29.80
2018-08-19T11:39:57.697Z,30.10
2018-08-19T11:42:01.518Z,30.40
2018-08-19T11:44:10.237Z,30.50
2018-08-19T11:46:14.356Z,30.60
2018-08-19T11:48:19.340Z,30.30
2018-08-19T11:50:23.388Z,30.40
2018-08-19T11:52:27.199Z,30.30
2018-08-19T11:54:31.771Z,30.10
2018-08-19T11:56:35.414Z,29.70
2018-08-19T11:58:47.761Z,29.40
2018-08-19T12:00:57.019Z,29.30
2018-08-19T12:03:00.692Z,29.30
2018-08-19T12:05:04.385Z,29.40
2018-08-19T12:07:08.173Z,29.40
2018-08-19T12:09:12.173Z,29.40
2018-08-19T12:11:20.449Z,29.60
2018-08-19T12:13:26.431Z,29.90
2018-08-19T12:15:30.410Z,30.10
2018-08-19T12:17:34.810Z,30.20
2018-08-19T12:19:39.985Z,30.10
2018-08-19T12:21:49.597Z,29.80
2018-08-19T12:24:07.311Z,29.70
2018-08-19T12:26:11.220Z,29.50
2018-08-19T12:28:15.460Z,29.30
2018-08-19T12:30:19.352Z,29.40
2018-08-19T12:32:25.608Z,29.70
2018-08-19T12:34:29.591Z,30.00
2018-08-19T12:36:33.253Z,30.00
2018-08-19T12:38:36.870Z,29.90
2018-08-19T12:40:44.873Z,29.90
2018-08-19T12:42:53.590Z,30.10
2018-08-19T12:45:01.216Z,30.30
2018-08-19T12:47:08.176Z,30.40
2018-08-19T12:49:11.782Z,30.60
2018-08-19T12:51:15.415Z,30.60
2018-08-19T12:53:20.708Z,30.20
2018-08-19T12:55:24.616Z,30.00
2018-08-19T12:57:28.419Z,30.00
2018-08-19T12:59:32.257Z,30.00
2018-08-19T13:01:36.358Z,30.10
2018-08-19T13:03:41.014Z,30.40
2018-08-19T13:05:58.668Z,30.70
2018-08-19T13:08:03.598Z,30.70
2018-08-19T13:10:07.734Z,30.60
2018-08-19T13:12:12.653Z,30.20
2018-08-19T13:14:16.429Z,29.80
2018-08-19T13:16:20.061Z,29.60
2018-08-19T13:18:29.461Z,29.60
2018-08-19T13:20:33.207Z,29.70
2018-08-19T13:22:52.897Z,30.00
2018-08-19T13:24:56.839Z,30.40
2018-08-19T13:27:00.797Z,30.70
2018-08-19T13:29:04.744Z,30.90
2018-08-19T13:31:08.539Z,30.80
2018-08-19T13:33:12.179Z,30.70
2018-08-19T13:35:16.221Z,30.50
2018-08-19T13:37:20.017Z,30.60
2018-08-19T13:39:23.897Z,30.70
2018-08-19T13:41:27.805Z,30.90
2018-08-19T13:43:31.816Z,31.00
2018-08-19T13:45:35.876Z,31.00
2018-08-19T13:47:40.650Z,31.10
2018-08-19T13:49:44.572Z,31.10
2018-08-19T13:51:48.379Z,31.10
2018-08-19T13:53:52.080Z,31.10
2018-08-19T13:55:55.757Z,31.10
2018-08-19T13:57:59.428Z,31.10
2018-08-19T14:00:03.118Z,31.10
2018-08-19T14:02:06.892Z,31.10
2018-08-19T14:04:11.118Z,31.30
2018-08-19T14:06:14.805Z,31.40
2018-08-19T14:08:18.383Z,31.50
2018-08-19T14:10:22.317Z,31.40
2018-08-19T14:12:26.173Z,31.30
2018-08-19T14:14:29.880Z,31.20
2018-08-19T14:16:34.356Z,31.10
2018-08-19T14:18:38.015Z,31.10
2018-08-19T14:20:41.833Z,30.70
2018-08-19T14:22:45.565Z,30.70
2018-08-19T14:24:49.404Z,30.70
2018-08-19T14:26:53.218Z,30.80
2018-08-19T14:28:56.846Z,30.90
2018-08-19T14:31:00.493Z,30.90
2018-08-19T14:33:04.197Z,30.80
2018-08-19T14:35:08.094Z,30.70
2018-08-19T14:37:11.855Z,30.80
2018-08-19T14:39:15.691Z,30.70
2018-08-19T14:41:19.451Z,30.60
2018-08-19T14:43:23.336Z,30.60
2018-08-19T14:45:27.248Z,30.60
2018-08-19T14:47:30.972Z,30.60
2018-08-19T14:49:34.782Z,30.40
2018-08-19T14:51:58.601Z,30.40
2018-08-19T14:54:15.687Z,30.50
2018-08-19T14:56:19.639Z,30.60
2018-08-19T14:58:23.536Z,30.70
2018-08-19T15:00:27.404Z,30.90
2018-08-19T15:02:31.243Z,31.00
2018-08-19T15:04:35.081Z,31.10
2018-08-19T15:06:39.154Z,31.30
2018-08-19T15:08:42.858Z,31.30
2018-08-19T15:10:50.840Z,31.30
2018-08-19T15:12:54.637Z,31.30
2018-08-19T15:14:59.724Z,31.20
2018-08-19T15:17:03.418Z,31.10
2018-08-19T15:19:07.369Z,30.70
2018-08-19T15:21:11.045Z,30.50
2018-08-19T15:23:17.375Z,30.00
2018-08-19T15:25:21.274Z,29.80
2018-08-19T15:27:24.961Z,29.80
2018-08-19T15:29:30.261Z,29.90
2018-08-19T15:31:34.212Z,30.10
2018-08-19T15:33:37.923Z,30.30
2018-08-19T15:35:42.504Z,30.10
2018-08-19T15:37:46.377Z,30.00
2018-08-19T15:39:50.219Z,30.10
2018-08-19T15:41:53.919Z,30.30
2018-08-19T15:43:57.856Z,30.30
2018-08-19T15:46:01.680Z,30.30
2018-08-19T15:48:05.810Z,30.40
2018-08-19T15:50:19.917Z,30.40
2018-08-19T15:52:23.605Z,30.30
2018-08-19T15:54:27.525Z,30.30
2018-08-19T15:56:31.396Z,30.30
2018-08-19T15:58:35.552Z,30.40
2018-08-19T16:00:41.537Z,30.40
2018-08-19T16:02:45.414Z,30.40
2018-08-19T16:04:49.460Z,30.40
2018-08-19T16:06:54.916Z,30.30
2018-08-19T16:08:58.982Z,30.20
2018-08-19T16:11:02.778Z,30.10
2018-08-19T16:13:11.975Z,30.00
2018-08-19T16:15:21.196Z,30.00
2018-08-19T16:17:25.007Z,29.90
2018-08-19T16:19:28.854Z,29.90
2018-08-19T16:21:32.798Z,30.00
2018-08-19T16:23:36.584Z,29.90
2018-08-19T16:25:40.451Z,29.90
2018-08-19T16:27:51.575Z,30.00
2018-08-19T16:29:55.606Z,29.70
2018-08-19T16:31:59.457Z,29.50
2018-08-19T16:34:03.741Z,29.40
2018-08-19T16:36:07.692Z,29.40
2018-08-19T16:38:11.540Z,29.40
2018-08-19T16:40:15.334Z,29.30
2018-08-19T16:42:19.279Z,29.30
2018-08-19T16:44:23.127Z,29.30
2018-08-19T16:46:27.080Z,29.30
2018-08-19T16:48:31.043Z,29.20
2018-08-19T16:50:35.541Z,29.10
2018-08-19T16:52:39.041Z,28.90
2018-08-19T16:54:43.536Z,28.90
2018-08-19T16:56:47.676Z,28.70
2018-08-19T16:58:51.783Z,28.60
2018-08-19T17:00:55.836Z,28.50
2018-08-19T17:02:59.775Z,28.50
2018-08-19T17:05:03.796Z,28.50
2018-08-19T17:07:10.448Z,28.40
2018-08-19T17:09:14.134Z,28.40
2018-08-19T17:11:17.885Z,28.40
2018-08-19T17:13:22.461Z,28.40
2018-08-19T17:15:33.077Z,28.40
2018-08-19T17:17:36.904Z,28.30
2018-08-19T17:19:40.792Z,28.20
2018-08-19T17:21:44.419Z,28.20
2018-08-19T17:23:49.981Z,28.20
2018-08-19T17:25:53.976Z,28.10
2018-08-19T17:28:05.105Z,28.00
2018-08-19T17:30:16.076Z,28.00
2018-08-19T17:32:19.920Z,27.90
2018-08-19T17:34:23.909Z,27.90
2018-08-19T17:36:32.811Z,27.80
2018-08-19T17:38:37.195Z,27.70
2018-08-19T17:40:41.158Z,27.60
2018-08-19T17:42:44.845Z,27.50
2018-08-19T17:44:48.635Z,27.50
2018-08-19T17:46:54.964Z,27.40
2018-08-19T17:48:58.938Z,27.40
2018-08-19T17:51:02.802Z,27.30
2018-08-19T17:53:07.705Z,27.20
2018-08-19T17:55:11.652Z,27.20
2018-08-19T17:57:15.477Z,27.10
2018-08-19T17:59:19.492Z,27.00
2018-08-19T18:01:23.380Z,27.00
2018-08-19T18:03:27.146Z,26.90
2018-08-19T18:05:32.143Z,26.80
2018-08-19T18:07:36.094Z,26.80
2018-08-19T18:09:44.146Z,26.70
2018-08-19T18:11:54.376Z,26.60
2018-08-19T18:13:58.448Z,26.60
2018-08-19T18:16:02.596Z,26.50
2018-08-19T18:18:06.875Z,26.50
2018-08-19T18:20:24.357Z,26.40
2018-08-19T18:22:28.068Z,26.40
2018-08-19T18:24:31.864Z,26.30
2018-08-19T18:26:36.492Z,26.20
2018-08-19T18:28:42.059Z,26.20
2018-08-19T18:30:48.659Z,26.10
2018-08-19T18:32:52.609Z,26.10
2018-08-19T18:34:57.263Z,26.00
2018-08-19T18:37:01.578Z,26.00
2018-08-19T18:39:09.317Z,26.00
2018-08-19T18:41:37.238Z,25.90
2018-08-19T18:43:41.237Z,25.80
2018-08-19T18:45:45.351Z,25.70
2018-08-19T18:47:54.505Z,25.70
2018-08-19T18:49:58.454Z,25.60
2018-08-19T18:52:07.659Z,25.60
2018-08-19T18:54:20.900Z,25.60
2018-08-19T18:56:25.219Z,25.50
2018-08-19T18:58:29.884Z,25.40
2018-08-19T19:00:35.280Z,25.30
2018-08-19T19:02:43.709Z,25.30
2018-08-19T19:04:48.028Z,25.20
2018-08-19T19:06:52.012Z,25.20
2018-08-19T19:08:55.942Z,25.20
2018-08-19T19:11:05.086Z,25.10
2018-08-19T19:13:09.437Z,25.00
2018-08-19T19:15:14.061Z,25.00
2018-08-19T19:17:20.260Z,25.00
2018-08-19T19:19:24.245Z,24.90
2018-08-19T19:21:28.234Z,24.90
2018-08-19T19:23:43.816Z,24.90
2018-08-19T19:25:47.928Z,24.80
2018-08-19T19:27:51.956Z,24.70
2018-08-19T19:30:01.198Z,24.70
2018-08-19T19:32:26.136Z,24.60
2018-08-19T19:34:35.664Z,24.50
2018-08-19T19:36:40.336Z,24.50
2018-08-19T19:38:59.142Z,24.40
2018-08-19T19:41:07.395Z,24.30
2018-08-19T19:43:11.535Z,24.20
2018-08-19T19:45:15.803Z,24.20
2018-08-19T19:47:19.747Z,24.10
2018-08-19T19:49:24.077Z,24.10
2018-08-19T19:51:30.895Z,24.10
2018-08-19T19:53:34.964Z,24.10
2018-08-19T19:55:39.196Z,24.00
2018-08-19T19:57:43.812Z,24.00
2018-08-19T19:59:47.901Z,23.90
2018-08-19T20:01:52.268Z,23.90
2018-08-19T20:03:56.614Z,23.90
2018-08-19T20:06:00.879Z,23.90
2018-08-19T20:08:05.021Z,23.80
2018-08-19T20:10:14.468Z,23.80
2018-08-19T20:12:23.423Z,23.70
2018-08-19T20:14:27.336Z,23.70
2018-08-19T20:16:31.366Z,23.60
2018-08-19T20:18:35.376Z,23.50
2018-08-19T20:20:39.656Z,23.50
2018-08-19T20:22:43.858Z,23.50
2018-08-19T20:24:47.895Z,23.40
2018-08-19T20:26:51.625Z,23.40
2018-08-19T20:28:57.343Z,23.30
2018-08-19T20:31:01.200Z,23.30
2018-08-19T20:33:05.339Z,23.20
2018-08-19T20:35:09.227Z,23.20
2018-08-19T20:37:13.177Z,23.10
2018-08-19T20:39:17.136Z,23.00
2018-08-19T20:41:21.045Z,23.00
2018-08-19T20:43:25.601Z,23.00
2018-08-19T20:45:29.433Z,22.90
2018-08-19T20:47:33.242Z,22.90
2018-08-19T20:49:37.093Z,22.90
2018-08-19T20:51:40.941Z,22.80
2018-08-19T20:53:44.849Z,22.80
2018-08-19T20:55:49.040Z,22.80
2018-08-19T20:57:52.818Z,22.70
2018-08-19T20:59:56.674Z,22.70
2018-08-19T21:02:00.554Z,22.60
2018-08-19T21:04:04.552Z,22.60
2018-08-19T21:06:08.406Z,22.50
2018-08-19T21:08:14.406Z,22.50
2018-08-19T21:10:18.182Z,22.40
2018-08-19T21:12:22.004Z,22.40
2018-08-19T21:14:25.901Z,22.30
2018-08-19T21:16:30.211Z,22.20
2018-08-19T21:18:33.879Z,22.20
2018-08-19T21:20:37.628Z,22.20
2018-08-19T21:22:41.410Z,22.10
2018-08-19T21:24:45.421Z,22.00
2018-08-19T21:26:53.212Z,21.90
2018-08-19T21:29:03.323Z,21.90
2018-08-19T21:31:07.024Z,21.80
2018-08-19T21:33:12.631Z,21.80
2018-08-19T21:35:16.413Z,21.70
2018-08-19T21:37:27.282Z,21.70
2018-08-19T21:39:31.033Z,21.70
2018-08-19T21:41:46.899Z,21.60
2018-08-19T21:43:50.665Z,21.60
2018-08-19T21:45:54.332Z,21.60
2018-08-19T21:47:58.156Z,21.50
2018-08-19T21:50:01.924Z,21.50
2018-08-19T21:52:05.656Z,21.40
2018-08-19T21:54:11.116Z,21.40
2018-08-19T21:56:14.856Z,21.40
2018-08-19T21:58:18.644Z,21.40
2018-08-19T22:00:23.727Z,21.30
2018-08-19T22:02:33.132Z,21.30
2018-08-19T22:04:36.995Z,21.30
2018-08-19T22:06:40.915Z,21.30
2018-08-19T22:08:44.681Z,21.30
2018-08-19T22:10:49.254Z,21.20
2018-08-19T22:12:52.863Z,21.20
2018-08-19T22:14:56.598Z,21.10
2018-08-19T22:17:05.639Z,21.10
2018-08-19T22:19:09.526Z,21.00
2018-08-19T22:21:19.701Z,21.00
2018-08-19T22:23:32.253Z,21.00
2018-08-19T22:25:38.320Z,20.90
2018-08-19T22:27:42.092Z,20.90
2018-08-19T22:29:45.926Z,20.90
2018-08-19T22:31:50.913Z,20.80
2018-08-19T22:33:58.599Z,20.80
2018-08-19T22:36:03.659Z,20.70
2018-08-19T22:38:12.182Z,20.60
2018-08-19T22:40:22.950Z,20.60
2018-08-19T22:42:26.502Z,20.50
2018-08-19T22:44:30.583Z,20.40
2018-08-19T22:46:34.335Z,20.40
2018-08-19T22:48:39.899Z,20.30
2018-08-19T22:50:43.651Z,20.30
2018-08-19T22:52:48.689Z,20.30
2018-08-19T22:54:55.171Z,20.30
2018-08-19T22:56:58.844Z,20.20
2018-08-19T22:59:02.696Z,20.10
2018-08-19T23:01:07.077Z,20.10
2018-08-19T23:03:10.773Z,20.10
2018-08-19T23:05:14.376Z,20.00
2018-08-19T23:07:17.953Z,20.00
2018-08-19T23:09:21.510Z,20.00
2018-08-19T23:11:27.809Z,19.90
2018-08-19T23:13:42.642Z,19.90
2018-08-19T23:15:46.730Z,19.90
2018-08-19T23:17:50.432Z,19.90
2018-08-19T23:19:53.998Z,19.90
2018-08-19T23:21:57.661Z,19.80
2018-08-19T23:24:01.218Z,19.80
2018-08-19T23:26:05.368Z,19.80
2018-08-19T23:28:08.946Z,19.80
2018-08-19T23:30:12.493Z,19.70
2018-08-19T23:32:16.825Z,19.70
2018-08-19T23:34:20.453Z,19.70
2018-08-19T23:36:24.202Z,19.70
2018-08-19T23:38:27.739Z,19.70
2018-08-19T23:40:31.468Z,19.60
2018-08-19T23:42:35.059Z,19.60
2018-08-19T23:44:38.577Z,19.60
2018-08-19T23:46:42.218Z,19.60
2018-08-19T23:48:45.823Z,19.60
2018-08-19T23:50:49.382Z,19.50
2018-08-19T23:52:52.950Z,19.50
2018-08-19T23:54:56.583Z,19.50
2018-08-19T23:57:00.226Z,19.50
2018-08-19T23:59:04.033Z,19.40
